sensor_id;sensor_type;location;lat;lon;timestamp;P1;durP1;ratioP1;P2;durP2;ratioP2
69256;SDS011;56376;53.356;-1.748;2022-11-20T00:00:55;7.17;;;5.00;;
69256;SDS011;56376;53.356;-1.748;2022-11-20T00:03:20;10.87;;;5.17;;
69256;SDS011;56376;53.356;-1.748;2022-11-20T00:05:46;8.23;;;5.00;;
69256;SDS011;56376;53.356;-1.748;2022-11-20T00:08:12;6.20;;;4.63;;
69256;SDS011;56376;53.356;-1.748;2022-11-20T00:10:38;6.15;;;4.82;;
69256;SDS011;56376;53.356;-1.748;2022-11-20T00:13:05;7.67;;;5.10;;
69256;SDS011;56376;53.356;-1.748;2022-11-20T00:15:31;7.03;;;4.87;;
69256;SDS011;56376;53.356;-1.748;2022-11-20T00:17:58;6.73;;;6.03;;
69256;SDS011;56376;53.356;-1.748;2022-11-20T00:20:24;5.93;;;4.57;;
69256;SDS011;56376;53.356;-1.748;2022-11-20T00:22:50;6.15;;;4.85;;
69256;SDS011;56376;53.356;-1.748;2022-11-20T00:25:15;7.33;;;4.70;;
69256;SDS011;56376;53.356;-1.748;2022-11-20T00:27:41;6.47;;;4.60;;
69256;SDS011;56376;53.356;-1.748;2022-11-20T00:30:06;6.20;;;4.80;;
69256;SDS011;56376;53.356;-1.748;2022-11-20T00:32:32;8.13;;;5.17;;
69256;SDS011;56376;53.356;-1.748;2022-11-20T00:34:58;7.50;;;5.90;;
69256;SDS011;56376;53.356;-1.748;2022-11-20T00:37:23;7.60;;;5.20;;
69256;SDS011;56376;53.356;-1.748;2022-11-20T00:39:49;8.43;;;6.20;;
69256;SDS011;56376;53.356;-1.748;2022-11-20T00:42:14;6.50;;;5.13;;
69256;SDS011;56376;53.356;-1.748;2022-11-20T00:44:39;8.40;;;6.47;;
69256;SDS011;56376;53.356;-1.748;2022-11-20T00:47:05;10.23;;;6.57;;
69256;SDS011;56376;53.356;-1.748;2022-11-20T00:49:30;8.90;;;6.53;;
69256;SDS011;56376;53.356;-1.748;2022-11-20T00:51:56;9.17;;;6.73;;
69256;SDS011;56376;53.356;-1.748;2022-11-20T00:54:21;10.20;;;7.33;;
69256;SDS011;56376;53.356;-1.748;2022-11-20T00:56:46;9.50;;;6.83;;
69256;SDS011;56376;53.356;-1.748;2022-11-20T00:59:12;10.77;;;6.93;;
69256;SDS011;56376;53.356;-1.748;2022-11-20T01:01:37;9.63;;;7.27;;
69256;SDS011;56376;53.356;-1.748;2022-11-20T01:04:03;10.40;;;7.37;;
69256;SDS011;56376;53.356;-1.748;2022-11-20T01:06:30;8.57;;;7.63;;
69256;SDS011;56376;53.356;-1.748;2022-11-20T01:09:00;9.77;;;7.53;;
69256;SDS011;56376;53.356;-1.748;2022-11-20T01:11:32;12.40;;;8.63;;
69256;SDS011;56376;53.356;-1.748;2022-11-20T01:14:03;15.57;;;8.97;;
69256;SDS011;56376;53.356;-1.748;2022-11-20T01:16:31;10.20;;;7.97;;
69256;SDS011;56376;53.356;-1.748;2022-11-20T01:18:59;11.77;;;8.02;;
69256;SDS011;56376;53.356;-1.748;2022-11-20T01:21:27;10.13;;;7.13;;
69256;SDS011;56376;53.356;-1.748;2022-11-20T01:23:57;13.70;;;8.80;;
69256;SDS011;56376;53.356;-1.748;2022-11-20T01:26:24;11.70;;;8.37;;
69256;SDS011;56376;53.356;-1.748;2022-11-20T01:28:51;10.80;;;8.70;;
69256;SDS011;56376;53.356;-1.748;2022-11-20T01:31:19;10.60;;;7.43;;
69256;SDS011;56376;53.356;-1.748;2022-11-20T01:33:47;9.43;;;7.70;;
69256;SDS011;56376;53.356;-1.748;2022-11-20T01:36:15;9.40;;;7.63;;
69256;SDS011;56376;53.356;-1.748;2022-11-20T01:38:41;14.87;;;8.97;;
69256;SDS011;56376;53.356;-1.748;2022-11-20T01:41:07;13.33;;;9.23;;
69256;SDS011;56376;53.356;-1.748;2022-11-20T01:43:34;9.83;;;8.33;;
69256;SDS011;56376;53.356;-1.748;2022-11-20T01:46:04;11.10;;;7.97;;
69256;SDS011;56376;53.356;-1.748;2022-11-20T01:48:36;13.43;;;8.40;;
69256;SDS011;56376;53.356;-1.748;2022-11-20T01:54:00;12.07;;;9.10;;
69256;SDS011;56376;53.356;-1.748;2022-11-20T01:56:31;9.93;;;8.07;;
69256;SDS011;56376;53.356;-1.748;2022-11-20T01:59:01;10.03;;;7.17;;
69256;SDS011;56376;53.356;-1.748;2022-11-20T02:01:28;10.57;;;7.47;;
69256;SDS011;56376;53.356;-1.748;2022-11-20T02:03:54;10.53;;;7.63;;
69256;SDS011;56376;53.356;-1.748;2022-11-20T02:06:24;9.80;;;6.93;;
69256;SDS011;56376;53.356;-1.748;2022-11-20T02:08:52;9.63;;;6.67;;
69256;SDS011;56376;53.356;-1.748;2022-11-20T02:11:19;9.27;;;6.63;;
69256;SDS011;56376;53.356;-1.748;2022-11-20T02:13:44;9.37;;;6.77;;
69256;SDS011;56376;53.356;-1.748;2022-11-20T02:16:12;11.80;;;7.20;;
69256;SDS011;56376;53.356;-1.748;2022-11-20T02:18:41;11.50;;;6.90;;
69256;SDS011;56376;53.356;-1.748;2022-11-20T02:21:32;8.47;;;6.40;;
69256;SDS011;56376;53.356;-1.748;2022-11-20T02:24:15;8.63;;;6.68;;
69256;SDS011;56376;53.356;-1.748;2022-11-20T02:29:18;9.00;;;6.80;;
69256;SDS011;56376;53.356;-1.748;2022-11-20T02:31:49;9.87;;;8.00;;
69256;SDS011;56376;53.356;-1.748;2022-11-20T02:34:15;10.07;;;6.90;;
69256;SDS011;56376;53.356;-1.748;2022-11-20T02:36:40;9.93;;;7.30;;
69256;SDS011;56376;53.356;-1.748;2022-11-20T02:39:07;8.97;;;6.70;;
69256;SDS011;56376;53.356;-1.748;2022-11-20T02:41:37;10.43;;;6.87;;
69256;SDS011;56376;53.356;-1.748;2022-11-20T02:44:03;11.63;;;7.20;;
69256;SDS011;56376;53.356;-1.748;2022-11-20T02:46:29;8.30;;;6.30;;
69256;SDS011;56376;53.356;-1.748;2022-11-20T02:48:56;9.57;;;7.13;;
69256;SDS011;56376;53.356;-1.748;2022-11-20T02:51:21;10.07;;;6.73;;
69256;SDS011;56376;53.356;-1.748;2022-11-20T02:53:47;10.57;;;6.70;;
69256;SDS011;56376;53.356;-1.748;2022-11-20T02:56:12;8.60;;;6.23;;
69256;SDS011;56376;53.356;-1.748;2022-11-20T02:58:38;8.27;;;6.47;;
69256;SDS011;56376;53.356;-1.748;2022-11-20T03:01:03;10.57;;;6.10;;
69256;SDS011;56376;53.356;-1.748;2022-11-20T03:03:29;8.87;;;5.77;;
69256;SDS011;56376;53.356;-1.748;2022-11-20T03:05:54;6.43;;;5.33;;
69256;SDS011;56376;53.356;-1.748;2022-11-20T03:08:19;6.87;;;5.30;;
69256;SDS011;56376;53.356;-1.748;2022-11-20T03:10:45;7.20;;;4.60;;
69256;SDS011;56376;53.356;-1.748;2022-11-20T03:13:10;6.13;;;4.87;;
69256;SDS011;56376;53.356;-1.748;2022-11-20T03:15:36;5.70;;;4.50;;
69256;SDS011;56376;53.356;-1.748;2022-11-20T03:18:02;6.67;;;4.90;;
69256;SDS011;56376;53.356;-1.748;2022-11-20T03:20:28;6.37;;;4.37;;
69256;SDS011;56376;53.356;-1.748;2022-11-20T03:22:54;5.37;;;4.40;;
69256;SDS011;56376;53.356;-1.748;2022-11-20T03:25:20;7.13;;;4.40;;
69256;SDS011;56376;53.356;-1.748;2022-11-20T03:27:46;5.27;;;4.30;;
69256;SDS011;56376;53.356;-1.748;2022-11-20T03:30:11;6.93;;;4.10;;
69256;SDS011;56376;53.356;-1.748;2022-11-20T03:32:37;6.63;;;4.93;;
69256;SDS011;56376;53.356;-1.748;2022-11-20T03:35:02;6.83;;;5.27;;
69256;SDS011;56376;53.356;-1.748;2022-11-20T03:37:28;6.33;;;4.70;;
69256;SDS011;56376;53.356;-1.748;2022-11-20T03:39:53;8.00;;;4.60;;
69256;SDS011;56376;53.356;-1.748;2022-11-20T03:42:19;6.93;;;4.00;;
69256;SDS011;56376;53.356;-1.748;2022-11-20T03:45:03;5.93;;;4.30;;
69256;SDS011;56376;53.356;-1.748;2022-11-20T03:47:29;4.53;;;3.67;;
69256;SDS011;56376;53.356;-1.748;2022-11-20T03:49:54;6.80;;;4.05;;
69256;SDS011;56376;53.356;-1.748;2022-11-20T03:52:19;5.60;;;3.53;;
69256;SDS011;56376;53.356;-1.748;2022-11-20T03:54:45;6.97;;;4.20;;
69256;SDS011;56376;53.356;-1.748;2022-11-20T03:57:10;5.17;;;4.00;;
69256;SDS011;56376;53.356;-1.748;2022-11-20T03:59:35;5.35;;;3.92;;
69256;SDS011;56376;53.356;-1.748;2022-11-20T04:02:01;4.23;;;3.70;;
69256;SDS011;56376;53.356;-1.748;2022-11-20T04:04:26;5.93;;;4.10;;
69256;SDS011;56376;53.356;-1.748;2022-11-20T04:06:52;5.10;;;3.93;;
69256;SDS011;56376;53.356;-1.748;2022-11-20T04:09:17;4.80;;;3.80;;
69256;SDS011;56376;53.356;-1.748;2022-11-20T04:11:42;6.57;;;4.07;;
69256;SDS011;56376;53.356;-1.748;2022-11-20T04:14:12;4.73;;;3.43;;
69256;SDS011;56376;53.356;-1.748;2022-11-20T04:16:39;5.00;;;3.60;;
69256;SDS011;56376;53.356;-1.748;2022-11-20T04:19:05;5.20;;;3.53;;
69256;SDS011;56376;53.356;-1.748;2022-11-20T04:21:35;5.20;;;3.50;;
69256;SDS011;56376;53.356;-1.748;2022-11-20T04:24:00;4.80;;;3.30;;
69256;SDS011;56376;53.356;-1.748;2022-11-20T04:26:26;7.07;;;3.63;;
69256;SDS011;56376;53.356;-1.748;2022-11-20T04:28:53;3.50;;;3.00;;
69256;SDS011;56376;53.356;-1.748;2022-11-20T04:31:20;4.87;;;3.37;;
69256;SDS011;56376;53.356;-1.748;2022-11-20T04:33:48;3.40;;;3.10;;
69256;SDS011;56376;53.356;-1.748;2022-11-20T04:36:15;3.20;;;2.87;;
69256;SDS011;56376;53.356;-1.748;2022-11-20T04:38:42;4.45;;;3.00;;
69256;SDS011;56376;53.356;-1.748;2022-11-20T04:41:09;4.17;;;2.90;;
69256;SDS011;56376;53.356;-1.748;2022-11-20T04:43:39;3.50;;;3.20;;
69256;SDS011;56376;53.356;-1.748;2022-11-20T04:46:05;2.83;;;2.43;;
69256;SDS011;56376;53.356;-1.748;2022-11-20T04:48:30;3.57;;;2.63;;
69256;SDS011;56376;53.356;-1.748;2022-11-20T04:50:56;4.00;;;2.80;;
69256;SDS011;56376;53.356;-1.748;2022-11-20T04:53:22;3.37;;;2.50;;
69256;SDS011;56376;53.356;-1.748;2022-11-20T04:55:48;2.87;;;2.20;;
69256;SDS011;56376;53.356;-1.748;2022-11-20T04:58:14;2.63;;;2.20;;
69256;SDS011;56376;53.356;-1.748;2022-11-20T05:00:40;2.60;;;2.30;;
69256;SDS011;56376;53.356;-1.748;2022-11-20T05:03:05;2.33;;;2.13;;
69256;SDS011;56376;53.356;-1.748;2022-11-20T05:05:31;2.20;;;1.80;;
69256;SDS011;56376;53.356;-1.748;2022-11-20T05:07:58;2.30;;;2.10;;
69256;SDS011;56376;53.356;-1.748;2022-11-20T05:10:27;3.10;;;2.37;;
69256;SDS011;56376;53.356;-1.748;2022-11-20T05:12:53;1.93;;;1.73;;
69256;SDS011;56376;53.356;-1.748;2022-11-20T05:15:18;2.20;;;2.00;;
69256;SDS011;56376;53.356;-1.748;2022-11-20T05:17:48;3.08;;;1.77;;
69256;SDS011;56376;53.356;-1.748;2022-11-20T05:20:14;2.80;;;2.20;;
69256;SDS011;56376;53.356;-1.748;2022-11-20T05:22:39;3.57;;;2.57;;
69256;SDS011;56376;53.356;-1.748;2022-11-20T05:25:05;2.90;;;1.93;;
69256;SDS011;56376;53.356;-1.748;2022-11-20T05:27:30;3.58;;;2.38;;
69256;SDS011;56376;53.356;-1.748;2022-11-20T05:29:55;4.10;;;2.33;;
69256;SDS011;56376;53.356;-1.748;2022-11-20T05:32:21;2.50;;;2.07;;
69256;SDS011;56376;53.356;-1.748;2022-11-20T05:34:50;2.33;;;1.80;;
69256;SDS011;56376;53.356;-1.748;2022-11-20T05:37:15;2.43;;;1.60;;
69256;SDS011;56376;53.356;-1.748;2022-11-20T05:39:41;2.47;;;1.97;;
69256;SDS011;56376;53.356;-1.748;2022-11-20T05:42:06;2.00;;;1.70;;
69256;SDS011;56376;53.356;-1.748;2022-11-20T05:44:50;2.53;;;1.90;;
69256;SDS011;56376;53.356;-1.748;2022-11-20T05:47:15;1.87;;;1.43;;
69256;SDS011;56376;53.356;-1.748;2022-11-20T05:49:41;2.13;;;1.77;;
69256;SDS011;56376;53.356;-1.748;2022-11-20T05:52:06;2.17;;;1.73;;
69256;SDS011;56376;53.356;-1.748;2022-11-20T05:54:31;2.33;;;1.70;;
69256;SDS011;56376;53.356;-1.748;2022-11-20T05:56:57;2.22;;;2.03;;
69256;SDS011;56376;53.356;-1.748;2022-11-20T05:59:22;1.80;;;1.70;;
69256;SDS011;56376;53.356;-1.748;2022-11-20T06:01:48;1.93;;;1.67;;
69256;SDS011;56376;53.356;-1.748;2022-11-20T06:04:13;1.58;;;1.48;;
69256;SDS011;56376;53.356;-1.748;2022-11-20T06:06:38;1.85;;;1.50;;
69256;SDS011;56376;53.356;-1.748;2022-11-20T06:09:04;2.00;;;1.80;;
69256;SDS011;56376;53.356;-1.748;2022-11-20T06:11:29;1.67;;;1.40;;
69256;SDS011;56376;53.356;-1.748;2022-11-20T06:13:54;1.80;;;1.45;;
69256;SDS011;56376;53.356;-1.748;2022-11-20T06:16:20;1.53;;;1.40;;
69256;SDS011;56376;53.356;-1.748;2022-11-20T06:18:46;2.80;;;1.83;;
69256;SDS011;56376;53.356;-1.748;2022-11-20T06:21:13;1.67;;;1.50;;
69256;SDS011;56376;53.356;-1.748;2022-11-20T06:23:40;2.57;;;1.70;;
69256;SDS011;56376;53.356;-1.748;2022-11-20T06:26:07;2.17;;;1.97;;
69256;SDS011;56376;53.356;-1.748;2022-11-20T06:28:37;1.40;;;1.27;;
69256;SDS011;56376;53.356;-1.748;2022-11-20T06:31:03;1.57;;;1.47;;
69256;SDS011;56376;53.356;-1.748;2022-11-20T06:33:29;1.97;;;1.50;;
69256;SDS011;56376;53.356;-1.748;2022-11-20T06:35:58;1.60;;;1.47;;
69256;SDS011;56376;53.356;-1.748;2022-11-20T06:38:25;1.83;;;1.17;;
69256;SDS011;56376;53.356;-1.748;2022-11-20T06:40:51;1.43;;;1.30;;
69256;SDS011;56376;53.356;-1.748;2022-11-20T06:43:16;3.43;;;1.80;;
69256;SDS011;56376;53.356;-1.748;2022-11-20T06:45:41;2.53;;;1.90;;
69256;SDS011;56376;53.356;-1.748;2022-11-20T06:48:07;4.67;;;2.40;;
69256;SDS011;56376;53.356;-1.748;2022-11-20T06:50:34;5.67;;;2.30;;
69256;SDS011;56376;53.356;-1.748;2022-11-20T06:53:01;3.93;;;2.23;;
69256;SDS011;56376;53.356;-1.748;2022-11-20T06:55:28;8.40;;;2.50;;
69256;SDS011;56376;53.356;-1.748;2022-11-20T06:57:54;5.63;;;3.37;;
69256;SDS011;56376;53.356;-1.748;2022-11-20T07:00:19;5.90;;;2.80;;
69256;SDS011;56376;53.356;-1.748;2022-11-20T07:02:44;5.88;;;2.38;;
69256;SDS011;56376;53.356;-1.748;2022-11-20T07:05:10;4.03;;;2.37;;
69256;SDS011;56376;53.356;-1.748;2022-11-20T07:07:35;5.60;;;2.30;;
69256;SDS011;56376;53.356;-1.748;2022-11-20T07:10:01;3.27;;;2.20;;
69256;SDS011;56376;53.356;-1.748;2022-11-20T07:12:26;3.93;;;2.97;;
69256;SDS011;56376;53.356;-1.748;2022-11-20T07:14:52;4.47;;;2.40;;
69256;SDS011;56376;53.356;-1.748;2022-11-20T07:17:17;4.07;;;2.53;;
69256;SDS011;56376;53.356;-1.748;2022-11-20T07:19:43;2.67;;;2.00;;
69256;SDS011;56376;53.356;-1.748;2022-11-20T07:22:08;5.87;;;2.43;;
69256;SDS011;56376;53.356;-1.748;2022-11-20T07:24:34;3.43;;;2.00;;
69256;SDS011;56376;53.356;-1.748;2022-11-20T07:26:59;4.33;;;2.33;;
69256;SDS011;56376;53.356;-1.748;2022-11-20T07:29:25;6.35;;;2.78;;
69256;SDS011;56376;53.356;-1.748;2022-11-20T07:31:50;3.43;;;2.37;;
69256;SDS011;56376;53.356;-1.748;2022-11-20T07:34:16;6.43;;;2.63;;
69256;SDS011;56376;53.356;-1.748;2022-11-20T07:36:41;5.60;;;3.10;;
69256;SDS011;56376;53.356;-1.748;2022-11-20T07:39:06;7.37;;;3.70;;
69256;SDS011;56376;53.356;-1.748;2022-11-20T07:41:32;11.87;;;4.77;;
69256;SDS011;56376;53.356;-1.748;2022-11-20T07:43:58;8.40;;;4.30;;
69256;SDS011;56376;53.356;-1.748;2022-11-20T07:46:23;12.07;;;5.70;;
69256;SDS011;56376;53.356;-1.748;2022-11-20T07:48:48;12.40;;;6.20;;
69256;SDS011;56376;53.356;-1.748;2022-11-20T07:51:14;10.65;;;5.57;;
69256;SDS011;56376;53.356;-1.748;2022-11-20T07:53:39;10.60;;;5.27;;
69256;SDS011;56376;53.356;-1.748;2022-11-20T07:56:05;14.17;;;5.73;;
69256;SDS011;56376;53.356;-1.748;2022-11-20T07:58:31;11.50;;;6.27;;
69256;SDS011;56376;53.356;-1.748;2022-11-20T08:01:05;9.37;;;4.17;;
69256;SDS011;56376;53.356;-1.748;2022-11-20T08:03:32;12.20;;;4.97;;
69256;SDS011;56376;53.356;-1.748;2022-11-20T08:06:01;6.33;;;3.63;;
69256;SDS011;56376;53.356;-1.748;2022-11-20T08:08:27;6.23;;;3.37;;
69256;SDS011;56376;53.356;-1.748;2022-11-20T08:10:53;8.57;;;3.70;;
69256;SDS011;56376;53.356;-1.748;2022-11-20T08:13:38;9.00;;;4.80;;
69256;SDS011;56376;53.356;-1.748;2022-11-20T08:16:22;10.82;;;4.07;;
69256;SDS011;56376;53.356;-1.748;2022-11-20T08:18:47;14.23;;;4.47;;
69256;SDS011;56376;53.356;-1.748;2022-11-20T08:21:13;5.97;;;3.37;;
69256;SDS011;56376;53.356;-1.748;2022-11-20T08:23:38;5.45;;;2.63;;
69256;SDS011;56376;53.356;-1.748;2022-11-20T08:26:04;16.33;;;5.03;;
69256;SDS011;56376;53.356;-1.748;2022-11-20T08:28:29;10.70;;;4.20;;
69256;SDS011;56376;53.356;-1.748;2022-11-20T08:30:58;6.15;;;2.53;;
69256;SDS011;56376;53.356;-1.748;2022-11-20T08:33:25;5.47;;;3.05;;
69256;SDS011;56376;53.356;-1.748;2022-11-20T08:35:50;5.33;;;2.57;;
69256;SDS011;56376;53.356;-1.748;2022-11-20T08:38:16;11.90;;;3.23;;
69256;SDS011;56376;53.356;-1.748;2022-11-20T08:40:41;10.07;;;3.23;;
69256;SDS011;56376;53.356;-1.748;2022-11-20T08:43:26;16.70;;;4.40;;
69256;SDS011;56376;53.356;-1.748;2022-11-20T08:45:52;9.77;;;3.43;;
69256;SDS011;56376;53.356;-1.748;2022-11-20T08:48:20;12.23;;;4.03;;
69256;SDS011;56376;53.356;-1.748;2022-11-20T08:50:45;12.80;;;4.57;;
69256;SDS011;56376;53.356;-1.748;2022-11-20T08:53:11;13.10;;;3.93;;
69256;SDS011;56376;53.356;-1.748;2022-11-20T08:55:36;11.17;;;3.00;;
69256;SDS011;56376;53.356;-1.748;2022-11-20T08:58:05;10.67;;;3.63;;
69256;SDS011;56376;53.356;-1.748;2022-11-20T09:00:32;10.00;;;3.10;;
69256;SDS011;56376;53.356;-1.748;2022-11-20T09:02:59;8.63;;;2.70;;
69256;SDS011;56376;53.356;-1.748;2022-11-20T09:05:26;8.17;;;3.20;;
69256;SDS011;56376;53.356;-1.748;2022-11-20T09:07:51;7.57;;;3.37;;
69256;SDS011;56376;53.356;-1.748;2022-11-20T09:10:17;9.00;;;3.73;;
69256;SDS011;56376;53.356;-1.748;2022-11-20T09:12:42;15.47;;;4.80;;
69256;SDS011;56376;53.356;-1.748;2022-11-20T09:15:08;19.17;;;4.50;;
69256;SDS011;56376;53.356;-1.748;2022-11-20T09:17:33;7.57;;;3.50;;
69256;SDS011;56376;53.356;-1.748;2022-11-20T09:19:59;17.95;;;4.75;;
69256;SDS011;56376;53.356;-1.748;2022-11-20T09:22:24;14.57;;;4.03;;
69256;SDS011;56376;53.356;-1.748;2022-11-20T09:24:49;10.13;;;3.97;;
69256;SDS011;56376;53.356;-1.748;2022-11-20T09:27:15;11.43;;;3.57;;
69256;SDS011;56376;53.356;-1.748;2022-11-20T09:29:45;12.57;;;4.00;;
69256;SDS011;56376;53.356;-1.748;2022-11-20T09:32:11;15.73;;;3.60;;
69256;SDS011;56376;53.356;-1.748;2022-11-20T09:34:36;12.50;;;4.63;;
69256;SDS011;56376;53.356;-1.748;2022-11-20T09:37:01;13.15;;;3.47;;
69256;SDS011;56376;53.356;-1.748;2022-11-20T09:39:27;11.83;;;2.90;;
69256;SDS011;56376;53.356;-1.748;2022-11-20T09:52:54;15.07;;;3.03;;
69256;SDS011;56376;53.356;-1.748;2022-11-20T09:55:22;5.37;;;2.90;;
69256;SDS011;56376;53.356;-1.748;2022-11-20T09:57:48;16.47;;;4.47;;
69256;SDS011;56376;53.356;-1.748;2022-11-20T10:00:17;5.93;;;1.93;;
69256;SDS011;56376;53.356;-1.748;2022-11-20T10:02:52;6.10;;;2.57;;
69256;SDS011;56376;53.356;-1.748;2022-11-20T10:05:47;10.07;;;3.00;;
69256;SDS011;56376;53.356;-1.748;2022-11-20T10:26:56;17.30;;;3.90;;
69256;SDS011;56376;53.356;-1.748;2022-11-20T10:29:29;15.53;;;4.10;;
69256;SDS011;56376;53.356;-1.748;2022-11-20T10:32:02;13.85;;;3.15;;
69256;SDS011;56376;53.356;-1.748;2022-11-20T10:35:06;13.38;;;4.35;;
69256;SDS011;56376;53.356;-1.748;2022-11-20T10:37:27;13.90;;;3.95;;
69256;SDS011;56376;53.356;-1.748;2022-11-20T10:42:58;9.60;;;3.22;;
69256;SDS011;56376;53.356;-1.748;2022-11-20T10:48:14;9.77;;;4.55;;
69256;SDS011;56376;53.356;-1.748;2022-11-20T10:50:48;10.88;;;4.05;;
69256;SDS011;56376;53.356;-1.748;2022-11-20T10:53:40;12.70;;;4.93;;
69256;SDS011;56376;53.356;-1.748;2022-11-20T10:56:24;8.48;;;3.63;;
69256;SDS011;56376;53.356;-1.748;2022-11-20T10:59:18;10.43;;;3.15;;
69256;SDS011;56376;53.356;-1.748;2022-11-20T11:01:50;9.00;;;3.65;;
69256;SDS011;56376;53.356;-1.748;2022-11-20T11:04:25;7.57;;;2.25;;
69256;SDS011;56376;53.356;-1.748;2022-11-20T11:06:54;9.63;;;3.38;;
69256;SDS011;56376;53.356;-1.748;2022-11-20T11:09:34;12.82;;;3.42;;
69256;SDS011;56376;53.356;-1.748;2022-11-20T11:12:07;8.93;;;3.08;;
69256;SDS011;56376;53.356;-1.748;2022-11-20T11:14:44;10.68;;;2.70;;
69256;SDS011;56376;53.356;-1.748;2022-11-20T11:17:46;10.55;;;3.97;;
69256;SDS011;56376;53.356;-1.748;2022-11-20T11:22:53;5.28;;;2.40;;
69256;SDS011;56376;53.356;-1.748;2022-11-20T11:25:25;7.15;;;2.40;;
69256;SDS011;56376;53.356;-1.748;2022-11-20T11:28:02;6.25;;;2.25;;
69256;SDS011;56376;53.356;-1.748;2022-11-20T11:30:44;8.23;;;2.78;;
69256;SDS011;56376;53.356;-1.748;2022-11-20T11:33:20;6.38;;;2.03;;
69256;SDS011;56376;53.356;-1.748;2022-11-20T11:35:55;6.07;;;2.03;;
69256;SDS011;56376;53.356;-1.748;2022-11-20T11:38:27;8.35;;;2.78;;
69256;SDS011;56376;53.356;-1.748;2022-11-20T11:41:00;5.80;;;1.88;;
69256;SDS011;56376;53.356;-1.748;2022-11-20T11:43:31;11.68;;;3.00;;
69256;SDS011;56376;53.356;-1.748;2022-11-20T11:51:35;10.85;;;2.80;;
69256;SDS011;56376;53.356;-1.748;2022-11-20T11:54:17;12.88;;;3.95;;
69256;SDS011;56376;53.356;-1.748;2022-11-20T11:56:48;4.85;;;2.00;;
69256;SDS011;56376;53.356;-1.748;2022-11-20T11:59:16;5.50;;;1.70;;
69256;SDS011;56376;53.356;-1.748;2022-11-20T12:01:57;5.00;;;1.77;;
69256;SDS011;56376;53.356;-1.748;2022-11-20T12:04:46;4.15;;;1.77;;
69256;SDS011;56376;53.356;-1.748;2022-11-20T12:07:22;6.88;;;2.08;;
69256;SDS011;56376;53.356;-1.748;2022-11-20T12:10:01;10.25;;;2.40;;
69256;SDS011;56376;53.356;-1.748;2022-11-20T12:12:30;5.00;;;2.03;;
69256;SDS011;56376;53.356;-1.748;2022-11-20T12:15:11;8.27;;;2.92;;
69256;SDS011;56376;53.356;-1.748;2022-11-20T12:17:41;7.60;;;2.95;;
69256;SDS011;56376;53.356;-1.748;2022-11-20T12:20:11;6.32;;;2.33;;
69256;SDS011;56376;53.356;-1.748;2022-11-20T12:22:53;7.05;;;2.13;;
69256;SDS011;56376;53.356;-1.748;2022-11-20T12:25:30;6.07;;;1.95;;
69256;SDS011;56376;53.356;-1.748;2022-11-20T12:31:02;6.63;;;2.33;;
69256;SDS011;56376;53.356;-1.748;2022-11-20T12:36:36;5.60;;;1.73;;
69256;SDS011;56376;53.356;-1.748;2022-11-20T12:39:26;8.73;;;2.22;;
69256;SDS011;56376;53.356;-1.748;2022-11-20T12:42:10;6.32;;;1.73;;
69256;SDS011;56376;53.356;-1.748;2022-11-20T12:50:44;7.68;;;2.03;;
69256;SDS011;56376;53.356;-1.748;2022-11-20T12:53:41;6.55;;;2.45;;
69256;SDS011;56376;53.356;-1.748;2022-11-20T13:01:44;4.43;;;1.63;;
69256;SDS011;56376;53.356;-1.748;2022-11-20T13:06:58;4.82;;;2.10;;
69256;SDS011;56376;53.356;-1.748;2022-11-20T13:09:26;5.72;;;2.10;;
69256;SDS011;56376;53.356;-1.748;2022-11-20T13:14:40;6.75;;;2.40;;
69256;SDS011;56376;53.356;-1.748;2022-11-20T13:17:43;5.70;;;2.38;;
69256;SDS011;56376;53.356;-1.748;2022-11-20T13:20:18;6.03;;;1.85;;
69256;SDS011;56376;53.356;-1.748;2022-11-20T13:22:45;3.40;;;1.45;;
69256;SDS011;56376;53.356;-1.748;2022-11-20T13:25:22;5.18;;;1.80;;
69256;SDS011;56376;53.356;-1.748;2022-11-20T13:27:56;8.50;;;2.17;;
69256;SDS011;56376;53.356;-1.748;2022-11-20T13:30:24;5.65;;;2.00;;
69256;SDS011;56376;53.356;-1.748;2022-11-20T13:32:54;4.88;;;1.70;;
69256;SDS011;56376;53.356;-1.748;2022-11-20T13:40:27;6.15;;;2.17;;
69256;SDS011;56376;53.356;-1.748;2022-11-20T13:46:00;3.60;;;1.75;;
69256;SDS011;56376;53.356;-1.748;2022-11-20T13:48:34;6.05;;;2.13;;
69256;SDS011;56376;53.356;-1.748;2022-11-20T13:53:43;3.80;;;1.73;;
69256;SDS011;56376;53.356;-1.748;2022-11-20T13:56:55;5.68;;;2.20;;
69256;SDS011;56376;53.356;-1.748;2022-11-20T14:02:25;7.72;;;1.77;;
69256;SDS011;56376;53.356;-1.748;2022-11-20T14:04:53;5.25;;;2.30;;
69256;SDS011;56376;53.356;-1.748;2022-11-20T14:07:23;6.03;;;1.88;;
69256;SDS011;56376;53.356;-1.748;2022-11-20T14:09:53;7.28;;;2.42;;
69256;SDS011;56376;53.356;-1.748;2022-11-20T14:12:23;6.47;;;2.65;;
69256;SDS011;56376;53.356;-1.748;2022-11-20T14:14:56;7.82;;;2.20;;
69256;SDS011;56376;53.356;-1.748;2022-11-20T14:17:23;5.22;;;2.17;;
69256;SDS011;56376;53.356;-1.748;2022-11-20T14:19:54;4.22;;;2.22;;
69256;SDS011;56376;53.356;-1.748;2022-11-20T14:22:30;7.60;;;2.35;;
69256;SDS011;56376;53.356;-1.748;2022-11-20T14:27:36;6.57;;;1.92;;
69256;SDS011;56376;53.356;-1.748;2022-11-20T14:30:03;9.50;;;2.60;;
69256;SDS011;56376;53.356;-1.748;2022-11-20T14:32:29;3.95;;;1.77;;
69256;SDS011;56376;53.356;-1.748;2022-11-20T14:34:56;5.88;;;1.98;;
69256;SDS011;56376;53.356;-1.748;2022-11-20T14:37:27;6.18;;;2.35;;
69256;SDS011;56376;53.356;-1.748;2022-11-20T14:39:57;6.63;;;2.10;;
69256;SDS011;56376;53.356;-1.748;2022-11-20T14:42:24;6.40;;;2.55;;
69256;SDS011;56376;53.356;-1.748;2022-11-20T14:44:52;9.00;;;2.58;;
69256;SDS011;56376;53.356;-1.748;2022-11-20T14:47:23;5.72;;;2.00;;
69256;SDS011;56376;53.356;-1.748;2022-11-20T14:49:51;6.47;;;2.00;;
69256;SDS011;56376;53.356;-1.748;2022-11-20T14:52:22;6.05;;;2.10;;
69256;SDS011;56376;53.356;-1.748;2022-11-20T14:54:51;4.95;;;2.80;;
69256;SDS011;56376;53.356;-1.748;2022-11-20T15:02:41;7.40;;;2.40;;
69256;SDS011;56376;53.356;-1.748;2022-11-20T15:05:07;8.00;;;2.35;;
69256;SDS011;56376;53.356;-1.748;2022-11-20T15:07:34;3.90;;;1.90;;
69256;SDS011;56376;53.356;-1.748;2022-11-20T15:10:02;10.60;;;3.17;;
69256;SDS011;56376;53.356;-1.748;2022-11-20T15:12:29;5.75;;;1.88;;
69256;SDS011;56376;53.356;-1.748;2022-11-20T15:14:56;7.78;;;2.33;;
69256;SDS011;56376;53.356;-1.748;2022-11-20T15:17:22;4.85;;;2.22;;
69256;SDS011;56376;53.356;-1.748;2022-11-20T15:19:48;5.75;;;1.98;;
69256;SDS011;56376;53.356;-1.748;2022-11-20T15:22:13;5.60;;;1.90;;
69256;SDS011;56376;53.356;-1.748;2022-11-20T15:24:41;5.88;;;1.73;;
69256;SDS011;56376;53.356;-1.748;2022-11-20T15:27:07;6.00;;;1.60;;
69256;SDS011;56376;53.356;-1.748;2022-11-20T15:29:33;3.10;;;1.30;;
69256;SDS011;56376;53.356;-1.748;2022-11-20T15:31:58;2.72;;;1.17;;
69256;SDS011;56376;53.356;-1.748;2022-11-20T15:34:26;3.78;;;1.20;;
69256;SDS011;56376;53.356;-1.748;2022-11-20T15:36:51;3.22;;;1.08;;
69256;SDS011;56376;53.356;-1.748;2022-11-20T15:39:18;3.80;;;1.15;;
69256;SDS011;56376;53.356;-1.748;2022-11-20T15:41:43;4.38;;;1.40;;
69256;SDS011;56376;53.356;-1.748;2022-11-20T15:44:09;3.72;;;2.03;;
69256;SDS011;56376;53.356;-1.748;2022-11-20T15:46:39;3.15;;;1.60;;
69256;SDS011;56376;53.356;-1.748;2022-11-20T15:49:12;4.85;;;1.33;;
69256;SDS011;56376;53.356;-1.748;2022-11-20T15:51:48;2.88;;;1.30;;
69256;SDS011;56376;53.356;-1.748;2022-11-20T15:54:18;2.75;;;1.17;;
69256;SDS011;56376;53.356;-1.748;2022-11-20T15:56:48;2.47;;;1.30;;
69256;SDS011;56376;53.356;-1.748;2022-11-20T15:59:17;1.52;;;0.98;;
69256;SDS011;56376;53.356;-1.748;2022-11-20T16:01:43;2.92;;;1.05;;
69256;SDS011;56376;53.356;-1.748;2022-11-20T16:04:11;2.70;;;1.17;;
69256;SDS011;56376;53.356;-1.748;2022-11-20T16:06:39;1.35;;;0.70;;
69256;SDS011;56376;53.356;-1.748;2022-11-20T16:09:06;2.15;;;1.00;;
69256;SDS011;56376;53.356;-1.748;2022-11-20T16:11:32;0.98;;;0.70;;
69256;SDS011;56376;53.356;-1.748;2022-11-20T16:13:57;1.00;;;0.70;;